sensor_id;sensor_type;location;lat;lon;timestamp;temperature;humidity
53268;DHT22;39156;51.176;6.738;2023-03-13T00:00:58;10.00;74.30
53268;DHT22;39156;51.176;6.738;2023-03-13T00:03:24;10.00;74.40
53268;DHT22;39156;51.176;6.738;2023-03-13T00:05:54;10.10;74.50
53268;DHT22;39156;51.176;6.738;2023-03-13T00:08:21;10.00;74.40
53268;DHT22;39156;51.176;6.738;2023-03-13T00:10:47;10.00;74.40
53268;DHT22;39156;51.176;6.738;2023-03-13T00:13:13;10.10;74.50
53268;DHT22;39156;51.176;6.738;2023-03-13T00:15:39;10.10;74.60
53268;DHT22;39156;51.176;6.738;2023-03-13T00:18:04;10.20;74.60
53268;DHT22;39156;51.176;6.738;2023-03-13T00:20:30;10.20;74.50
53268;DHT22;39156;51.176;6.738;2023-03-13T00:22:56;10.20;74.50
53268;DHT22;39156;51.176;6.738;2023-03-13T00:25:21;10.20;74.50
53268;DHT22;39156;51.176;6.738;2023-03-13T00:27:47;10.20;74.50
53268;DHT22;39156;51.176;6.738;2023-03-13T00:30:13;10.20;74.50
53268;DHT22;39156;51.176;6.738;2023-03-13T00:32:40;10.20;74.50
53268;DHT22;39156;51.176;6.738;2023-03-13T00:35:06;10.20;74.60
53268;DHT22;39156;51.176;6.738;2023-03-13T00:37:32;10.20;74.80
53268;DHT22;39156;51.176;6.738;2023-03-13T00:39:58;10.30;74.80
53268;DHT22;39156;51.176;6.738;2023-03-13T00:42:23;10.20;74.80
53268;DHT22;39156;51.176;6.738;2023-03-13T00:44:49;10.20;75.00
53268;DHT22;39156;51.176;6.738;2023-03-13T00:47:15;10.20;75.20
53268;DHT22;39156;51.176;6.738;2023-03-13T00:49:40;10.20;75.20
53268;DHT22;39156;51.176;6.738;2023-03-13T00:52:06;10.30;75.20
53268;DHT22;39156;51.176;6.738;2023-03-13T00:54:32;10.30;75.30
53268;DHT22;39156;51.176;6.738;2023-03-13T00:56:57;10.20;75.30
53268;DHT22;39156;51.176;6.738;2023-03-13T00:59:23;10.10;75.40
53268;DHT22;39156;51.176;6.738;2023-03-13T01:01:49;10.20;75.60
53268;DHT22;39156;51.176;6.738;2023-03-13T01:04:14;10.20;75.70
53268;DHT22;39156;51.176;6.738;2023-03-13T01:06:41;10.20;75.90
53268;DHT22;39156;51.176;6.738;2023-03-13T01:09:08;10.10;76.00
53268;DHT22;39156;51.176;6.738;2023-03-13T01:11:38;10.20;76.10
53268;DHT22;39156;51.176;6.738;2023-03-13T01:14:11;10.10;76.30
53268;DHT22;39156;51.176;6.738;2023-03-13T01:16:39;10.10;76.40
53268;DHT22;39156;51.176;6.738;2023-03-13T01:19:11;10.00;76.40
53268;DHT22;39156;51.176;6.738;2023-03-13T01:21:39;10.10;76.60
53268;DHT22;39156;51.176;6.738;2023-03-13T01:24:05;10.10;76.60
53268;DHT22;39156;51.176;6.738;2023-03-13T01:26:31;10.10;76.90
53268;DHT22;39156;51.176;6.738;2023-03-13T01:28:57;10.10;76.60
53268;DHT22;39156;51.176;6.738;2023-03-13T01:31:25;10.10;76.70
53268;DHT22;39156;51.176;6.738;2023-03-13T01:33:57;10.00;76.80
53268;DHT22;39156;51.176;6.738;2023-03-13T01:36:25;10.00;77.00
53268;DHT22;39156;51.176;6.738;2023-03-13T01:38:53;10.00;76.90
53268;DHT22;39156;51.176;6.738;2023-03-13T01:41:21;10.10;77.20
53268;DHT22;39156;51.176;6.738;2023-03-13T01:43:48;10.10;77.40
53268;DHT22;39156;51.176;6.738;2023-03-13T01:46:41;10.10;77.80
53268;DHT22;39156;51.176;6.738;2023-03-13T01:49:11;10.10;78.50
53268;DHT22;39156;51.176;6.738;2023-03-13T01:51:45;10.10;78.30
53268;DHT22;39156;51.176;6.738;2023-03-13T01:54:22;10.10;78.60
53268;DHT22;39156;51.176;6.738;2023-03-13T01:57:12;10.20;79.00
53268;DHT22;39156;51.176;6.738;2023-03-13T01:59:43;10.10;79.30
53268;DHT22;39156;51.176;6.738;2023-03-13T02:02:12;10.10;79.10
53268;DHT22;39156;51.176;6.738;2023-03-13T02:04:42;10.10;79.10
53268;DHT22;39156;51.176;6.738;2023-03-13T02:07:17;10.10;79.30
53268;DHT22;39156;51.176;6.738;2023-03-13T02:09:48;10.10;79.50
53268;DHT22;39156;51.176;6.738;2023-03-13T02:12:31;10.10;79.60
53268;DHT22;39156;51.176;6.738;2023-03-13T02:15:13;10.20;80.10
53268;DHT22;39156;51.176;6.738;2023-03-13T02:17:41;10.20;80.10
53268;DHT22;39156;51.176;6.738;2023-03-13T02:20:08;10.10;79.90
53268;DHT22;39156;51.176;6.738;2023-03-13T02:27:53;10.10;80.70
53268;DHT22;39156;51.176;6.738;2023-03-13T02:30:25;10.10;80.60
53268;DHT22;39156;51.176;6.738;2023-03-13T02:32:51;10.10;80.10
53268;DHT22;39156;51.176;6.738;2023-03-13T02:35:19;10.10;80.50
53268;DHT22;39156;51.176;6.738;2023-03-13T02:37:50;10.10;80.80
53268;DHT22;39156;51.176;6.738;2023-03-13T02:40:25;10.00;80.90
53268;DHT22;39156;51.176;6.738;2023-03-13T02:42:56;10.20;81.30
53268;DHT22;39156;51.176;6.738;2023-03-13T02:45:24;10.00;81.10
53268;DHT22;39156;51.176;6.738;2023-03-13T02:47:49;10.10;81.40
53268;DHT22;39156;51.176;6.738;2023-03-13T02:50:16;10.10;81.50
53268;DHT22;39156;51.176;6.738;2023-03-13T02:52:44;10.10;81.60
53268;DHT22;39156;51.176;6.738;2023-03-13T02:55:17;10.10;81.70
53268;DHT22;39156;51.176;6.738;2023-03-13T02:57:47;10.10;82.10
53268;DHT22;39156;51.176;6.738;2023-03-13T03:00:14;10.10;82.00
53268;DHT22;39156;51.176;6.738;2023-03-13T03:02:42;10.10;82.20
53268;DHT22;39156;51.176;6.738;2023-03-13T03:05:10;10.00;82.20
53268;DHT22;39156;51.176;6.738;2023-03-13T03:07:36;10.10;82.30
53268;DHT22;39156;51.176;6.738;2023-03-13T03:10:02;10.00;82.30
53268;DHT22;39156;51.176;6.738;2023-03-13T03:12:28;10.10;82.50
53268;DHT22;39156;51.176;6.738;2023-03-13T03:14:54;10.10;82.50
53268;DHT22;39156;51.176;6.738;2023-03-13T03:17:19;10.20;82.70
53268;DHT22;39156;51.176;6.738;2023-03-13T03:19:45;10.10;82.70
53268;DHT22;39156;51.176;6.738;2023-03-13T03:22:11;10.20;82.80
53268;DHT22;39156;51.176;6.738;2023-03-13T03:24:36;10.20;82.80
53268;DHT22;39156;51.176;6.738;2023-03-13T03:27:02;10.20;83.00
53268;DHT22;39156;51.176;6.738;2023-03-13T03:29:28;10.20;83.00
53268;DHT22;39156;51.176;6.738;2023-03-13T03:31:54;10.20;83.00
53268;DHT22;39156;51.176;6.738;2023-03-13T03:34:19;10.20;82.90
53268;DHT22;39156;51.176;6.738;2023-03-13T03:36:45;10.30;83.00
53268;DHT22;39156;51.176;6.738;2023-03-13T03:39:11;10.30;83.00
53268;DHT22;39156;51.176;6.738;2023-03-13T03:41:36;10.30;83.10
53268;DHT22;39156;51.176;6.738;2023-03-13T03:44:03;10.30;83.10
53268;DHT22;39156;51.176;6.738;2023-03-13T03:46:29;10.30;83.10
53268;DHT22;39156;51.176;6.738;2023-03-13T03:48:55;10.30;83.20
53268;DHT22;39156;51.176;6.738;2023-03-13T03:51:21;10.40;83.20
53268;DHT22;39156;51.176;6.738;2023-03-13T03:53:47;10.40;83.30
53268;DHT22;39156;51.176;6.738;2023-03-13T03:56:13;10.50;83.40
53268;DHT22;39156;51.176;6.738;2023-03-13T03:58:39;10.50;83.50
53268;DHT22;39156;51.176;6.738;2023-03-13T04:01:04;10.40;83.50
53268;DHT22;39156;51.176;6.738;2023-03-13T04:03:30;10.50;83.60
53268;DHT22;39156;51.176;6.738;2023-03-13T04:05:56;10.50;83.70
53268;DHT22;39156;51.176;6.738;2023-03-13T04:08:23;10.60;83.70
53268;DHT22;39156;51.176;6.738;2023-03-13T04:10:49;10.60;83.70
53268;DHT22;39156;51.176;6.738;2023-03-13T04:13:15;10.50;83.70
53268;DHT22;39156;51.176;6.738;2023-03-13T04:15:40;10.70;83.70
53268;DHT22;39156;51.176;6.738;2023-03-13T04:18:06;10.70;83.60
53268;DHT22;39156;51.176;6.738;2023-03-13T04:20:33;10.70;83.60
53268;DHT22;39156;51.176;6.738;2023-03-13T04:22:58;10.70;83.60
53268;DHT22;39156;51.176;6.738;2023-03-13T04:25:24;10.80;83.70
53268;DHT22;39156;51.176;6.738;2023-03-13T04:27:50;10.80;83.60
53268;DHT22;39156;51.176;6.738;2023-03-13T04:30:16;10.90;83.70
53268;DHT22;39156;51.176;6.738;2023-03-13T04:32:42;10.80;83.60
53268;DHT22;39156;51.176;6.738;2023-03-13T04:35:08;10.90;83.60
53268;DHT22;39156;51.176;6.738;2023-03-13T04:37:34;10.90;83.60
53268;DHT22;39156;51.176;6.738;2023-03-13T04:40:00;11.00;83.70
53268;DHT22;39156;51.176;6.738;2023-03-13T04:42:26;11.00;83.60
53268;DHT22;39156;51.176;6.738;2023-03-13T04:44:51;11.00;83.70
53268;DHT22;39156;51.176;6.738;2023-03-13T04:47:17;11.00;83.60
53268;DHT22;39156;51.176;6.738;2023-03-13T04:49:43;11.10;83.70
53268;DHT22;39156;51.176;6.738;2023-03-13T04:52:09;11.10;83.70
53268;DHT22;39156;51.176;6.738;2023-03-13T04:54:35;11.10;83.60
53268;DHT22;39156;51.176;6.738;2023-03-13T04:57:00;11.10;83.60
53268;DHT22;39156;51.176;6.738;2023-03-13T04:59:26;11.10;83.60
53268;DHT22;39156;51.176;6.738;2023-03-13T05:01:52;11.20;83.60
53268;DHT22;39156;51.176;6.738;2023-03-13T05:04:17;11.20;83.60
53268;DHT22;39156;51.176;6.738;2023-03-13T05:06:43;11.20;83.60
53268;DHT22;39156;51.176;6.738;2023-03-13T05:09:09;11.30;83.60
53268;DHT22;39156;51.176;6.738;2023-03-13T05:11:35;11.30;83.90
53268;DHT22;39156;51.176;6.738;2023-03-13T05:14:00;11.30;83.60
53268;DHT22;39156;51.176;6.738;2023-03-13T05:16:26;11.30;83.60
53268;DHT22;39156;51.176;6.738;2023-03-13T05:18:52;11.30;83.60
53268;DHT22;39156;51.176;6.738;2023-03-13T05:21:18;11.30;83.50
53268;DHT22;39156;51.176;6.738;2023-03-13T05:23:43;11.40;83.50
53268;DHT22;39156;51.176;6.738;2023-03-13T05:26:09;11.40;83.40
53268;DHT22;39156;51.176;6.738;2023-03-13T05:28:35;11.50;83.40
53268;DHT22;39156;51.176;6.738;2023-03-13T05:31:00;11.50;83.20
53268;DHT22;39156;51.176;6.738;2023-03-13T05:33:26;11.60;83.20
53268;DHT22;39156;51.176;6.738;2023-03-13T05:35:52;11.60;83.20
53268;DHT22;39156;51.176;6.738;2023-03-13T05:38:17;11.60;83.00
53268;DHT22;39156;51.176;6.738;2023-03-13T05:40:43;11.60;83.00
53268;DHT22;39156;51.176;6.738;2023-03-13T05:43:09;11.60;82.90
53268;DHT22;39156;51.176;6.738;2023-03-13T05:45:34;11.60;82.80
53268;DHT22;39156;51.176;6.738;2023-03-13T05:48:01;11.60;82.80
53268;DHT22;39156;51.176;6.738;2023-03-13T05:50:26;11.70;82.80
53268;DHT22;39156;51.176;6.738;2023-03-13T05:52:52;11.70;82.70
53268;DHT22;39156;51.176;6.738;2023-03-13T05:55:18;11.70;82.60
53268;DHT22;39156;51.176;6.738;2023-03-13T05:57:45;11.80;82.60
53268;DHT22;39156;51.176;6.738;2023-03-13T06:00:14;11.80;82.50
53268;DHT22;39156;51.176;6.738;2023-03-13T06:02:40;11.80;82.50
53268;DHT22;39156;51.176;6.738;2023-03-13T06:05:07;11.80;82.40
53268;DHT22;39156;51.176;6.738;2023-03-13T06:07:33;11.80;82.30
53268;DHT22;39156;51.176;6.738;2023-03-13T06:09:59;11.80;82.30
53268;DHT22;39156;51.176;6.738;2023-03-13T06:12:25;11.90;82.30
53268;DHT22;39156;51.176;6.738;2023-03-13T06:14:50;11.90;82.30
53268;DHT22;39156;51.176;6.738;2023-03-13T06:17:16;11.90;82.20
53268;DHT22;39156;51.176;6.738;2023-03-13T06:19:42;11.90;82.20
53268;DHT22;39156;51.176;6.738;2023-03-13T06:22:07;11.90;82.00
53268;DHT22;39156;51.176;6.738;2023-03-13T06:24:33;12.00;82.00
53268;DHT22;39156;51.176;6.738;2023-03-13T06:26:59;12.00;81.90
53268;DHT22;39156;51.176;6.738;2023-03-13T06:29:25;11.90;81.80
53268;DHT22;39156;51.176;6.738;2023-03-13T06:31:50;12.00;81.70
53268;DHT22;39156;51.176;6.738;2023-03-13T06:34:16;12.00;81.70
53268;DHT22;39156;51.176;6.738;2023-03-13T06:36:42;12.10;81.70
53268;DHT22;39156;51.176;6.738;2023-03-13T06:39:09;12.00;81.50
53268;DHT22;39156;51.176;6.738;2023-03-13T06:41:36;12.00;81.40
53268;DHT22;39156;51.176;6.738;2023-03-13T06:44:02;12.10;81.30
53268;DHT22;39156;51.176;6.738;2023-03-13T06:46:27;12.10;81.20
53268;DHT22;39156;51.176;6.738;2023-03-13T06:48:53;12.20;81.20
53268;DHT22;39156;51.176;6.738;2023-03-13T06:51:20;12.20;81.10
53268;DHT22;39156;51.176;6.738;2023-03-13T06:53:47;12.20;81.00
53268;DHT22;39156;51.176;6.738;2023-03-13T06:56:13;12.20;80.90
53268;DHT22;39156;51.176;6.738;2023-03-13T06:58:39;12.20;80.80
53268;DHT22;39156;51.176;6.738;2023-03-13T07:01:12;12.20;80.60
53268;DHT22;39156;51.176;6.738;2023-03-13T07:03:39;12.30;80.50
53268;DHT22;39156;51.176;6.738;2023-03-13T07:06:06;12.20;80.50
53268;DHT22;39156;51.176;6.738;2023-03-13T07:08:33;12.30;80.30
53268;DHT22;39156;51.176;6.738;2023-03-13T07:11:01;12.30;80.30
53268;DHT22;39156;51.176;6.738;2023-03-13T07:13:29;12.30;80.00
53268;DHT22;39156;51.176;6.738;2023-03-13T07:15:59;12.30;79.90
53268;DHT22;39156;51.176;6.738;2023-03-13T07:18:25;12.40;79.80
53268;DHT22;39156;51.176;6.738;2023-03-13T07:20:55;12.40;79.80
53268;DHT22;39156;51.176;6.738;2023-03-13T07:23:22;12.40;79.70
53268;DHT22;39156;51.176;6.738;2023-03-13T07:25:57;12.40;79.50
53268;DHT22;39156;51.176;6.738;2023-03-13T07:28:25;12.50;79.50
53268;DHT22;39156;51.176;6.738;2023-03-13T07:30:51;12.50;79.40
53268;DHT22;39156;51.176;6.738;2023-03-13T07:33:17;12.50;79.30
53268;DHT22;39156;51.176;6.738;2023-03-13T07:35:48;12.50;79.10
53268;DHT22;39156;51.176;6.738;2023-03-13T07:38:15;12.50;78.90
53268;DHT22;39156;51.176;6.738;2023-03-13T07:40:51;12.60;79.00
53268;DHT22;39156;51.176;6.738;2023-03-13T07:43:18;12.60;78.80
53268;DHT22;39156;51.176;6.738;2023-03-13T07:46:01;12.70;78.50
53268;DHT22;39156;51.176;6.738;2023-03-13T07:48:32;12.70;78.40
53268;DHT22;39156;51.176;6.738;2023-03-13T07:50:59;12.70;78.30
53268;DHT22;39156;51.176;6.738;2023-03-13T07:53:26;12.70;78.20
53268;DHT22;39156;51.176;6.738;2023-03-13T07:58:19;12.70;77.90
53268;DHT22;39156;51.176;6.738;2023-03-13T08:00:45;12.80;77.90
53268;DHT22;39156;51.176;6.738;2023-03-13T08:03:11;12.80;77.80
53268;DHT22;39156;51.176;6.738;2023-03-13T08:05:36;12.80;77.50
53268;DHT22;39156;51.176;6.738;2023-03-13T08:08:02;12.80;77.40
53268;DHT22;39156;51.176;6.738;2023-03-13T08:10:29;12.80;77.20
53268;DHT22;39156;51.176;6.738;2023-03-13T08:12:55;12.80;77.10
53268;DHT22;39156;51.176;6.738;2023-03-13T08:15:21;12.80;76.90
53268;DHT22;39156;51.176;6.738;2023-03-13T08:17:50;12.80;77.00
53268;DHT22;39156;51.176;6.738;2023-03-13T08:20:17;12.90;76.90
53268;DHT22;39156;51.176;6.738;2023-03-13T08:22:46;12.80;76.80
53268;DHT22;39156;51.176;6.738;2023-03-13T08:25:15;12.90;76.80
53268;DHT22;39156;51.176;6.738;2023-03-13T08:27:41;12.90;76.50
53268;DHT22;39156;51.176;6.738;2023-03-13T08:30:07;12.90;76.70
53268;DHT22;39156;51.176;6.738;2023-03-13T08:32:34;12.80;76.60
53268;DHT22;39156;51.176;6.738;2023-03-13T08:35:01;13.00;76.60
53268;DHT22;39156;51.176;6.738;2023-03-13T08:37:27;12.90;76.50
53268;DHT22;39156;51.176;6.738;2023-03-13T08:39:53;12.90;76.60
53268;DHT22;39156;51.176;6.738;2023-03-13T08:42:21;13.00;76.60
53268;DHT22;39156;51.176;6.738;2023-03-13T08:44:47;13.00;76.60
53268;DHT22;39156;51.176;6.738;2023-03-13T08:47:13;13.00;76.60
53268;DHT22;39156;51.176;6.738;2023-03-13T08:49:39;13.00;76.60
53268;DHT22;39156;51.176;6.738;2023-03-13T08:52:05;13.10;76.60
53268;DHT22;39156;51.176;6.738;2023-03-13T08:54:32;13.10;76.80
53268;DHT22;39156;51.176;6.738;2023-03-13T08:56:58;13.10;76.80
53268;DHT22;39156;51.176;6.738;2023-03-13T08:59:24;13.10;76.70
53268;DHT22;39156;51.176;6.738;2023-03-13T09:01:50;13.20;76.90
53268;DHT22;39156;51.176;6.738;2023-03-13T09:04:16;13.20;76.90
53268;DHT22;39156;51.176;6.738;2023-03-13T09:06:42;13.20;77.00
53268;DHT22;39156;51.176;6.738;2023-03-13T09:09:08;13.20;77.20
53268;DHT22;39156;51.176;6.738;2023-03-13T09:11:36;13.30;77.30
53268;DHT22;39156;51.176;6.738;2023-03-13T09:14:03;13.30;77.30
53268;DHT22;39156;51.176;6.738;2023-03-13T09:16:31;13.40;77.50
53268;DHT22;39156;51.176;6.738;2023-03-13T09:18:58;13.40;77.50
53268;DHT22;39156;51.176;6.738;2023-03-13T09:21:29;13.40;77.60
53268;DHT22;39156;51.176;6.738;2023-03-13T09:23:57;13.40;77.60
53268;DHT22;39156;51.176;6.738;2023-03-13T09:26:24;13.40;77.60
53268;DHT22;39156;51.176;6.738;2023-03-13T09:28:52;13.40;77.70
53268;DHT22;39156;51.176;6.738;2023-03-13T09:31:21;13.50;77.80
53268;DHT22;39156;51.176;6.738;2023-03-13T09:33:48;13.60;77.70
53268;DHT22;39156;51.176;6.738;2023-03-13T09:36:15;13.70;77.60
53268;DHT22;39156;51.176;6.738;2023-03-13T09:38:41;13.60;77.40
53268;DHT22;39156;51.176;6.738;2023-03-13T09:44:05;13.80;77.40
53268;DHT22;39156;51.176;6.738;2023-03-13T09:46:40;13.80;77.40
53268;DHT22;39156;51.176;6.738;2023-03-13T09:49:36;13.80;77.40
53268;DHT22;39156;51.176;6.738;2023-03-13T09:52:33;13.80;77.20
53268;DHT22;39156;51.176;6.738;2023-03-13T10:01:03;14.00;77.20
53268;DHT22;39156;51.176;6.738;2023-03-13T10:06:03;14.20;77.50
53268;DHT22;39156;51.176;6.738;2023-03-13T10:08:32;14.40;77.70
53268;DHT22;39156;51.176;6.738;2023-03-13T10:11:06;14.60;77.40
53268;DHT22;39156;51.176;6.738;2023-03-13T10:13:52;14.80;76.40
53268;DHT22;39156;51.176;6.738;2023-03-13T10:18:59;15.20;74.70
53268;DHT22;39156;51.176;6.738;2023-03-13T10:21:36;15.30;74.70
53268;DHT22;39156;51.176;6.738;2023-03-13T10:26:49;15.50;73.70
53268;DHT22;39156;51.176;6.738;2023-03-13T10:29:26;15.60;73.90
53268;DHT22;39156;51.176;6.738;2023-03-13T10:32:01;15.60;72.70
53268;DHT22;39156;51.176;6.738;2023-03-13T10:37:18;15.80;72.50
53268;DHT22;39156;51.176;6.738;2023-03-13T10:39:45;15.80;72.50
53268;DHT22;39156;51.176;6.738;2023-03-13T10:42:29;15.80;72.50
53268;DHT22;39156;51.176;6.738;2023-03-13T10:44:59;15.80;71.80
53268;DHT22;39156;51.176;6.738;2023-03-13T10:47:26;15.90;71.90
53268;DHT22;39156;51.176;6.738;2023-03-13T10:49:56;15.90;71.90
53268;DHT22;39156;51.176;6.738;2023-03-13T10:55:06;15.90;71.30
53268;DHT22;39156;51.176;6.738;2023-03-13T10:57:36;15.90;71.40
53268;DHT22;39156;51.176;6.738;2023-03-13T11:00:34;16.00;71.10
53268;DHT22;39156;51.176;6.738;2023-03-13T11:03:05;16.00;70.90
53268;DHT22;39156;51.176;6.738;2023-03-13T11:05:40;16.10;71.10
53268;DHT22;39156;51.176;6.738;2023-03-13T11:08:20;16.10;70.70
53268;DHT22;39156;51.176;6.738;2023-03-13T11:11:14;16.10;69.60
53268;DHT22;39156;51.176;6.738;2023-03-13T11:13:43;16.10;69.30
53268;DHT22;39156;51.176;6.738;2023-03-13T11:16:12;16.20;70.10
53268;DHT22;39156;51.176;6.738;2023-03-13T11:22:05;16.10;69.90
53268;DHT22;39156;51.176;6.738;2023-03-13T11:27:44;16.20;70.50
53268;DHT22;39156;51.176;6.738;2023-03-13T11:33:19;16.20;69.00
53268;DHT22;39156;51.176;6.738;2023-03-13T11:47:56;16.40;68.50
53268;DHT22;39156;51.176;6.738;2023-03-13T11:56:38;16.50;69.00
53268;DHT22;39156;51.176;6.738;2023-03-13T12:02:26;16.70;68.40
53268;DHT22;39156;51.176;6.738;2023-03-13T12:04:58;16.80;67.80
53268;DHT22;39156;51.176;6.738;2023-03-13T12:07:52;16.80;67.60
53268;DHT22;39156;51.176;6.738;2023-03-13T12:10:30;16.90;67.80
53268;DHT22;39156;51.176;6.738;2023-03-13T12:14:08;16.90;67.80
53268;DHT22;39156;51.176;6.738;2023-03-13T12:16:25;16.90;67.40
53268;DHT22;39156;51.176;6.738;2023-03-13T12:18:56;17.00;66.70
53268;DHT22;39156;51.176;6.738;2023-03-13T12:21:34;17.00;67.20
53268;DHT22;39156;51.176;6.738;2023-03-13T12:27:12;16.90;66.70
53268;DHT22;39156;51.176;6.738;2023-03-13T12:30:00;16.90;66.70
53268;DHT22;39156;51.176;6.738;2023-03-13T12:32:57;16.90;66.40
53268;DHT22;39156;51.176;6.738;2023-03-13T12:35:35;16.90;66.50
53268;DHT22;39156;51.176;6.738;2023-03-13T12:38:33;16.80;66.90
53268;DHT22;39156;51.176;6.738;2023-03-13T12:41:32;16.80;66.20
53268;DHT22;39156;51.176;6.738;2023-03-13T12:44:00;16.70;66.70
53268;DHT22;39156;51.176;6.738;2023-03-13T12:46:40;16.80;67.20
53268;DHT22;39156;51.176;6.738;2023-03-13T12:52:07;16.80;67.20
53268;DHT22;39156;51.176;6.738;2023-03-13T13:00:43;16.80;65.60
53268;DHT22;39156;51.176;6.738;2023-03-13T13:06:12;16.80;66.60
53268;DHT22;39156;51.176;6.738;2023-03-13T13:09:28;16.80;66.60
53268;DHT22;39156;51.176;6.738;2023-03-13T13:11:42;16.80;65.70
53268;DHT22;39156;51.176;6.738;2023-03-13T13:16:54;16.80;65.80
53268;DHT22;39156;51.176;6.738;2023-03-13T13:27:54;16.80;65.90
53268;DHT22;39156;51.176;6.738;2023-03-13T13:32:49;16.90;66.30
53268;DHT22;39156;51.176;6.738;2023-03-13T13:35:27;16.90;66.10
53268;DHT22;39156;51.176;6.738;2023-03-13T13:40:58;17.00;65.20
53268;DHT22;39156;51.176;6.738;2023-03-13T13:43:32;17.00;65.00
53268;DHT22;39156;51.176;6.738;2023-03-13T13:48:33;17.00;65.10
53268;DHT22;39156;51.176;6.738;2023-03-13T13:53:56;17.00;65.00
53268;DHT22;39156;51.176;6.738;2023-03-13T13:56:50;16.90;64.90
53268;DHT22;39156;51.176;6.738;2023-03-13T13:59:29;17.10;64.90
53268;DHT22;39156;51.176;6.738;2023-03-13T14:04:40;17.00;65.10
53268;DHT22;39156;51.176;6.738;2023-03-13T14:07:14;17.00;65.20
53268;DHT22;39156;51.176;6.738;2023-03-13T14:09:51;17.10;65.30
53268;DHT22;39156;51.176;6.738;2023-03-13T14:15:14;17.00;65.50
53268;DHT22;39156;51.176;6.738;2023-03-13T14:17:49;17.00;65.40
53268;DHT22;39156;51.176;6.738;2023-03-13T14:20:27;17.10;66.00
53268;DHT22;39156;51.176;6.738;2023-03-13T14:22:53;17.10;65.60
53268;DHT22;39156;51.176;6.738;2023-03-13T14:25:22;17.10;64.60
53268;DHT22;39156;51.176;6.738;2023-03-13T14:27:49;17.10;65.10
53268;DHT22;39156;51.176;6.738;2023-03-13T14:30:18;17.10;65.20
53268;DHT22;39156;51.176;6.738;2023-03-13T14:32:44;17.10;65.30
53268;DHT22;39156;51.176;6.738;2023-03-13T14:35:14;17.10;65.50
53268;DHT22;39156;51.176;6.738;2023-03-13T14:37:47;17.10;65.40
53268;DHT22;39156;51.176;6.738;2023-03-13T14:40:25;17.10;65.00
53268;DHT22;39156;51.176;6.738;2023-03-13T14:42:57;17.10;65.40
53268;DHT22;39156;51.176;6.738;2023-03-13T14:45:33;17.00;65.20
53268;DHT22;39156;51.176;6.738;2023-03-13T14:48:16;17.00;65.30
53268;DHT22;39156;51.176;6.738;2023-03-13T14:50:49;17.00;64.60
53268;DHT22;39156;51.176;6.738;2023-03-13T14:53:20;16.90;64.90
53268;DHT22;39156;51.176;6.738;2023-03-13T14:56:13;16.90;65.00
53268;DHT22;39156;51.176;6.738;2023-03-13T14:58:46;16.80;64.70
53268;DHT22;39156;51.176;6.738;2023-03-13T15:01:27;16.80;64.80
53268;DHT22;39156;51.176;6.738;2023-03-13T15:03:55;16.70;64.60
53268;DHT22;39156;51.176;6.738;2023-03-13T15:06:23;16.70;65.10
53268;DHT22;39156;51.176;6.738;2023-03-13T15:09:13;16.70;65.00
53268;DHT22;39156;51.176;6.738;2023-03-13T15:11:58;16.60;64.90
53268;DHT22;39156;51.176;6.738;2023-03-13T15:14:39;16.60;64.90
53268;DHT22;39156;51.176;6.738;2023-03-13T15:19:42;16.60;65.10
53268;DHT22;39156;51.176;6.738;2023-03-13T15:22:12;16.50;65.30
53268;DHT22;39156;51.176;6.738;2023-03-13T15:24:38;16.50;65.30
53268;DHT22;39156;51.176;6.738;2023-03-13T15:27:20;16.50;65.70
53268;DHT22;39156;51.176;6.738;2023-03-13T15:29:47;16.50;65.70
53268;DHT22;39156;51.176;6.738;2023-03-13T15:32:28;16.40;65.80
53268;DHT22;39156;51.176;6.738;2023-03-13T15:34:57;16.50;65.40
53268;DHT22;39156;51.176;6.738;2023-03-13T15:37:26;16.40;65.60
53268;DHT22;39156;51.176;6.738;2023-03-13T15:39:53;16.50;65.40
53268;DHT22;39156;51.176;6.738;2023-03-13T15:42:19;16.40;65.60
53268;DHT22;39156;51.176;6.738;2023-03-13T15:44:45;16.50;66.00
53268;DHT22;39156;51.176;6.738;2023-03-13T15:47:13;16.40;65.80
53268;DHT22;39156;51.176;6.738;2023-03-13T15:49:40;16.40;65.70
53268;DHT22;39156;51.176;6.738;2023-03-13T15:52:14;16.50;65.70
53268;DHT22;39156;51.176;6.738;2023-03-13T15:54:45;16.40;65.80
53268;DHT22;39156;51.176;6.738;2023-03-13T15:57:19;16.40;66.10
53268;DHT22;39156;51.176;6.738;2023-03-13T15:59:49;16.40;66.20
53268;DHT22;39156;51.176;6.738;2023-03-13T16:02:17;16.40;66.10
53268;DHT22;39156;51.176;6.738;2023-03-13T16:04:45;16.40;65.90
53268;DHT22;39156;51.176;6.738;2023-03-13T16:07:12;16.50;65.80
53268;DHT22;39156;51.176;6.738;2023-03-13T16:09:40;16.50;65.80
53268;DHT22;39156;51.176;6.738;2023-03-13T16:12:07;16.40;65.50
53268;DHT22;39156;51.176;6.738;2023-03-13T16:14:34;16.40;65.50
53268;DHT22;39156;51.176;6.738;2023-03-13T16:17:00;16.40;65.90
53268;DHT22;39156;51.176;6.738;2023-03-13T16:19:28;16.40;65.20
53268;DHT22;39156;51.176;6.738;2023-03-13T16:21:54;16.30;64.50
53268;DHT22;39156;51.176;6.738;2023-03-13T16:24:20;16.20;64.40
53268;DHT22;39156;51.176;6.738;2023-03-13T16:26:46;16.20;64.30
53268;DHT22;39156;51.176;6.738;2023-03-13T16:29:13;16.10;64.10
53268;DHT22;39156;51.176;6.738;2023-03-13T16:31:40;16.10;63.60
53268;DHT22;39156;51.176;6.738;2023-03-13T16:34:07;16.10;63.80
53268;DHT22;39156;51.176;6.738;2023-03-13T16:36:34;15.90;63.80
53268;DHT22;39156;51.176;6.738;2023-03-13T16:39:03;15.70;63.80
53268;DHT22;39156;51.176;6.738;2023-03-13T16:41:35;15.70;64.00
53268;DHT22;39156;51.176;6.738;2023-03-13T16:44:01;15.60;64.00
53268;DHT22;39156;51.176;6.738;2023-03-13T16:46:38;15.50;64.10
53268;DHT22;39156;51.176;6.738;2023-03-13T16:49:07;15.50;64.20
53268;DHT22;39156;51.176;6.738;2023-03-13T16:51:37;15.30;64.10
53268;DHT22;39156;51.176;6.738;2023-03-13T16:54:03;15.30;64.30
53268;DHT22;39156;51.176;6.738;2023-03-13T16:59:00;15.20;64.30
53268;DHT22;39156;51.176;6.738;2023-03-13T17:01:27;15.10;64.30
53268;DHT22;39156;51.176;6.738;2023-03-13T17:03:53;15.10;64.40
53268;DHT22;39156;51.176;6.738;2023-03-13T17:06:25;15.10;64.50
53268;DHT22;39156;51.176;6.738;2023-03-13T17:08:51;15.00;64.30
53268;DHT22;39156;51.176;6.738;2023-03-13T17:11:18;15.00;64.50
53268;DHT22;39156;51.176;6.738;2023-03-13T17:13:47;14.90;64.70
53268;DHT22;39156;51.176;6.738;2023-03-13T17:16:34;14.80;64.70
53268;DHT22;39156;51.176;6.738;2023-03-13T17:19:01;14.80;64.70
53268;DHT22;39156;51.176;6.738;2023-03-13T17:21:28;14.80;64.90
53268;DHT22;39156;51.176;6.738;2023-03-13T17:23:56;14.80;65.20
53268;DHT22;39156;51.176;6.738;2023-03-13T17:26:35;14.70;65.10
53268;DHT22;39156;51.176;6.738;2023-03-13T17:29:03;14.70;65.10
53268;DHT22;39156;51.176;6.738;2023-03-13T17:31:29;14.60;65.20
53268;DHT22;39156;51.176;6.738;2023-03-13T17:34:02;14.60;65.40